createdAt,value
2018-08-30T00:00:05.854Z,100799.49
2018-08-30T00:05:07.982Z,100796.93
2018-08-30T00:10:10.222Z,100795.67
2018-08-30T00:15:12.577Z,100794.82
2018-08-30T00:20:14.721Z,100798.24
2018-08-30T00:25:16.887Z,100800.38
2018-08-30T00:30:19.003Z,100796.98
2018-08-30T00:35:21.163Z,100803.82
2018-08-30T00:40:23.309Z,100803.41
2018-08-30T00:45:25.441Z,100794.00
2018-08-30T00:50:27.565Z,100799.09
2018-08-30T00:55:29.685Z,100796.98
2018-08-30T01:00:31.819Z,100799.58
2018-08-30T01:05:34.346Z,100802.11
2018-08-30T01:10:36.503Z,100796.97
2018-08-30T01:15:38.619Z,100794.42
2018-08-30T01:20:40.746Z,100788.02
2018-08-30T01:25:42.869Z,100789.71
2018-08-30T01:30:45.031Z,100797.41
2018-08-30T01:35:47.282Z,100822.20
2018-08-30T01:40:49.436Z,100820.92
2018-08-30T01:45:51.682Z,100836.71
2018-08-30T01:50:53.801Z,100838.86
2018-08-30T01:55:55.897Z,100826.04
2018-08-30T02:00:58.039Z,100821.36
2018-08-30T02:06:00.260Z,100819.63
2018-08-30T02:11:02.404Z,100824.77
2018-08-30T02:16:04.680Z,100814.49
2018-08-30T02:21:06.827Z,100803.41
2018-08-30T02:26:08.946Z,100802.56
2018-08-30T02:31:11.088Z,100813.23
2018-08-30T02:36:13.516Z,100814.52
2018-08-30T02:41:15.647Z,100828.18
2018-08-30T02:46:17.748Z,100814.94
2018-08-30T02:51:19.899Z,100816.22
2018-08-30T02:56:22.003Z,100820.47
2018-08-30T03:01:24.127Z,100825.17
2018-08-30T03:06:26.939Z,100820.05
2018-08-30T03:11:29.042Z,100823.02
2018-08-30T03:16:31.199Z,100824.28
2018-08-30T03:21:33.372Z,100823.02
2018-08-30T03:26:35.512Z,100829.84
2018-08-30T03:31:37.674Z,100824.72
2018-08-30T03:36:39.817Z,100832.83
2018-08-30T03:41:41.973Z,100831.13
2018-08-30T03:46:44.102Z,100841.37
2018-08-30T03:51:46.215Z,100844.77
2018-08-30T03:56:48.348Z,100849.06
2018-08-30T04:01:50.481Z,100853.73
2018-08-30T04:06:52.613Z,100860.95
2018-08-30T04:11:54.733Z,100852.90
2018-08-30T04:16:56.908Z,100853.31
2018-08-30T04:21:59.180Z,100858.41
2018-08-30T04:27:01.311Z,100847.73
2018-08-30T04:32:03.440Z,100851.55
2018-08-30T04:37:05.614Z,100857.12
2018-08-30T04:42:07.739Z,100869.48
2018-08-30T04:47:09.862Z,100855.34
2018-08-30T04:52:12.025Z,100878.00
2018-08-30T04:57:14.171Z,100880.16
2018-08-30T05:02:16.318Z,100877.56
2018-08-30T05:07:18.498Z,100881.85
2018-08-30T05:12:20.632Z,100881.41
2018-08-30T05:17:22.728Z,100887.80
2018-08-30T05:22:24.868Z,100896.38
2018-08-30T05:27:27.018Z,100896.78
2018-08-30T05:32:29.247Z,100888.24
2018-08-30T05:37:31.827Z,100888.23
2018-08-30T05:42:34.042Z,100894.19
2018-08-30T05:47:36.190Z,100892.88
2018-08-30T05:52:38.319Z,100891.20
2018-08-30T05:57:40.420Z,100894.22
2018-08-30T06:02:42.559Z,100895.88
2018-08-30T06:07:44.669Z,100899.75
2018-08-30T06:12:46.792Z,100898.45
2018-08-30T06:17:48.936Z,100895.02
2018-08-30T06:22:51.080Z,100894.61
2018-08-30T06:27:53.181Z,100898.45
2018-08-30T06:32:55.445Z,100900.15
2018-08-30T06:37:57.510Z,100894.16
2018-08-30T06:42:59.652Z,100894.61
2018-08-30T06:48:01.798Z,100895.45
2018-08-30T06:53:03.959Z,100905.27
2018-08-30T06:58:06.085Z,100913.39
2018-08-30T07:03:08.204Z,100917.23
2018-08-30T07:08:10.557Z,100926.59
2018-08-30T07:13:12.676Z,100924.86
2018-08-30T07:18:14.813Z,100930.82
2018-08-30T07:23:16.935Z,100929.51
2018-08-30T07:28:19.057Z,100941.92
2018-08-30T07:33:21.213Z,100946.18
2018-08-30T07:38:23.391Z,100952.55
2018-08-30T07:43:25.522Z,100959.88
2018-08-30T07:48:27.649Z,100954.84
2018-08-30T07:53:29.797Z,100958.29
2018-08-30T07:58:31.989Z,100956.64
2018-08-30T08:03:34.110Z,100964.34
2018-08-30T08:08:36.222Z,100963.52
2018-08-30T08:13:38.371Z,100969.05
2018-08-30T08:18:40.523Z,100974.12
2018-08-30T08:23:42.660Z,100980.05
2018-08-30T08:28:44.820Z,100984.82
2018-08-30T08:33:47.005Z,100983.48
2018-08-30T08:38:49.378Z,100994.12
2018-08-30T08:43:51.511Z,100990.70
2018-08-30T08:48:53.634Z,100997.06
2018-08-30T08:53:55.771Z,100999.53
2018-08-30T08:58:58.340Z,101002.09
2018-08-30T09:04:00.366Z,101005.06
2018-08-30T09:09:03.044Z,101009.36
2018-08-30T09:14:05.247Z,101001.64
2018-08-30T09:19:07.406Z,101000.84
2018-08-30T09:24:09.572Z,101008.11
2018-08-30T09:29:11.974Z,101017.90
2018-08-30T09:34:14.131Z,101017.41
2018-08-30T09:39:16.327Z,101017.75
2018-08-30T09:44:18.483Z,101030.13
2018-08-30T09:49:20.761Z,101027.16
2018-08-30T09:54:22.823Z,101039.88
2018-08-30T09:59:24.939Z,101042.43
2018-08-30T10:04:27.074Z,101048.38
2018-08-30T10:09:29.196Z,101057.28
2018-08-30T10:14:31.362Z,101056.78
2018-08-30T10:19:33.499Z,101055.45
2018-08-30T10:24:35.669Z,101062.25
2018-08-30T10:29:37.861Z,101063.91
2018-08-30T10:34:40.035Z,101066.08
2018-08-30T10:39:42.183Z,101064.67
2018-08-30T10:44:44.530Z,101067.23
2018-08-30T10:49:46.722Z,101073.52
2018-08-30T10:54:48.817Z,101081.64
2018-08-30T10:59:50.979Z,100691.37
2018-08-30T11:04:53.239Z,101087.10
2018-08-30T11:09:55.436Z,101095.13
2018-08-30T11:14:57.631Z,101099.36
2018-08-30T11:19:59.809Z,101104.87
2018-08-30T11:25:02.018Z,101114.70
2018-08-30T11:30:04.202Z,101113.08
2018-08-30T11:35:06.358Z,101128.77
2018-08-30T11:40:08.547Z,101128.64
2018-08-30T11:45:10.737Z,101128.17
2018-08-30T11:50:12.887Z,101139.22
2018-08-30T11:55:15.068Z,101146.71
2018-08-30T12:00:17.190Z,101153.91
2018-08-30T12:05:19.345Z,101156.88
2018-08-30T12:10:21.561Z,101167.16
2018-08-30T12:15:23.726Z,101164.41
2018-08-30T12:20:25.948Z,101171.64
2018-08-30T12:25:28.074Z,101171.64
2018-08-30T12:30:30.285Z,101171.09
2018-08-30T12:35:32.526Z,101171.49
2018-08-30T12:40:34.778Z,101185.16
2018-08-30T12:45:36.981Z,101193.27
2018-08-30T12:50:39.531Z,101194.09
2018-08-30T12:55:41.679Z,101203.71
2018-08-30T13:00:43.893Z,101208.52
2018-08-30T13:05:46.313Z,101210.55
2018-08-30T13:10:48.501Z,101209.80
2018-08-30T13:15:50.519Z,101205.11
2018-08-30T13:20:52.798Z,101222.25
2018-08-30T13:25:54.922Z,101232.08
2018-08-30T13:30:57.218Z,101237.52
2018-08-30T13:35:59.415Z,101239.25
2018-08-30T13:41:01.663Z,101250.30
2018-08-30T13:46:03.942Z,101257.19
2018-08-30T13:51:06.277Z,101260.20
2018-08-30T13:56:08.469Z,101269.31
2018-08-30T14:01:11.015Z,101274.74
2018-08-30T14:06:12.736Z,101276.78
2018-08-30T14:11:14.989Z,101286.75
2018-08-30T14:16:16.852Z,101287.64
2018-08-30T14:21:19.133Z,101302.46
2018-08-30T14:26:21.268Z,101297.81
2018-08-30T14:31:23.401Z,101306.78
2018-08-30T14:36:25.548Z,101310.14
2018-08-30T14:41:27.798Z,101311.77
2018-08-30T14:46:29.932Z,101320.20
2018-08-30T14:51:32.218Z,101324.41
2018-08-30T14:56:34.410Z,101331.22
2018-08-30T15:01:36.593Z,101343.20
2018-08-30T15:06:38.776Z,101344.88
2018-08-30T15:11:40.979Z,101350.83
2018-08-30T15:21:45.242Z,101365.30
2018-08-30T15:26:47.582Z,101369.99
2018-08-30T15:31:49.703Z,101374.13
2018-08-30T15:36:51.881Z,101380.52
2018-08-30T15:41:54.170Z,101382.16
2018-08-30T15:46:56.327Z,101389.51
2018-08-30T15:51:58.748Z,101382.26
2018-08-30T15:57:01.073Z,101388.52
2018-08-30T16:02:03.192Z,101394.46
2018-08-30T16:07:05.386Z,101389.82
2018-08-30T16:12:07.627Z,101389.92
2018-08-30T16:17:09.858Z,101394.52
2018-08-30T16:22:12.057Z,101389.45
2018-08-30T16:27:14.303Z,101391.67
2018-08-30T16:32:16.497Z,101399.26
2018-08-30T16:37:18.688Z,101396.34
2018-08-30T16:42:20.919Z,101390.42
2018-08-30T16:47:23.173Z,101401.62
2018-08-30T16:52:25.330Z,101398.67
2018-08-30T16:57:27.522Z,101396.63
2018-08-30T17:02:29.925Z,101405.08
2018-08-30T17:07:32.170Z,101405.16
2018-08-30T17:12:34.461Z,101416.21
2018-08-30T17:17:36.847Z,101413.61
2018-08-30T17:22:39.187Z,101407.66
2018-08-30T17:27:41.445Z,101416.59
2018-08-30T17:32:43.683Z,101421.30
2018-08-30T17:37:45.924Z,101415.80
2018-08-30T17:42:48.584Z,101421.31
2018-08-30T17:47:50.885Z,101420.81
2018-08-30T17:52:53.186Z,101431.05
2018-08-30T17:57:55.619Z,101429.24
2018-08-30T18:02:57.919Z,101439.76
2018-08-30T18:08:00.224Z,101442.48
2018-08-30T18:13:02.441Z,101447.84
2018-08-30T18:18:05.524Z,101458.02
2018-08-30T18:23:07.714Z,101460.32
2018-08-30T18:28:09.988Z,101475.16
2018-08-30T18:33:12.926Z,101481.46
2018-08-30T18:38:15.977Z,101484.13
2018-08-30T18:43:18.333Z,101489.98
2018-08-30T18:48:20.687Z,101500.16
2018-08-30T18:53:24.647Z,101507.48
2018-08-30T18:58:26.918Z,101505.62
2018-08-30T19:03:29.227Z,101506.24
2018-08-30T19:08:31.612Z,101514.27
2018-08-30T19:13:33.965Z,101522.19
2018-08-30T19:18:42.703Z,101527.59
2018-08-30T19:23:45.004Z,101528.74
2018-08-30T19:28:47.515Z,101531.94
2018-08-30T19:33:50.901Z,101530.59
2018-08-30T19:38:53.166Z,101534.29
2018-08-30T19:43:55.549Z,101540.12
2018-08-30T19:48:57.804Z,101538.31
2018-08-30T19:54:00.023Z,101547.53
2018-08-30T19:59:02.331Z,101549.13
2018-08-30T20:04:05.543Z,101555.73
2018-08-30T20:09:07.781Z,101558.48
2018-08-30T20:14:10.024Z,101560.09
2018-08-30T20:19:12.276Z,101570.17
2018-08-30T20:24:14.486Z,101574.69
2018-08-30T20:29:16.666Z,101572.40
2018-08-30T20:34:18.814Z,101575.27
2018-08-30T20:39:20.995Z,101573.96
2018-08-30T20:44:23.261Z,101588.14
2018-08-30T20:49:25.451Z,101582.14
2018-08-30T20:54:27.638Z,101597.70
2018-08-30T20:59:30.744Z,101592.14
2018-08-30T21:04:32.937Z,101602.97
2018-08-30T21:09:35.123Z,101600.06
2018-08-30T21:14:37.274Z,101603.37
2018-08-30T21:19:40.035Z,101601.07
2018-08-30T21:24:42.162Z,101603.25
2018-08-30T21:29:44.361Z,101599.98
2018-08-30T21:34:46.477Z,101612.09
2018-08-30T21:39:48.627Z,101607.64
2018-08-30T21:44:50.823Z,101612.73
2018-08-30T21:49:52.988Z,101626.45
2018-08-30T21:54:55.188Z,101619.86
2018-08-30T21:59:57.379Z,101618.19
2018-08-30T22:04:59.650Z,101623.16
2018-08-30T22:10:02.294Z,101625.46
2018-08-30T22:15:04.781Z,101622.88
2018-08-30T22:20:07.009Z,101620.33
2018-08-30T22:25:09.189Z,101616.28
2018-08-30T22:30:11.354Z,101620.45
2018-08-30T22:35:13.538Z,101624.19
2018-08-30T22:40:15.716Z,101625.81
2018-08-30T22:45:17.901Z,101622.88
2018-08-30T22:50:20.029Z,101628.80
2018-08-30T22:55:22.302Z,101632.56
2018-08-30T23:00:24.447Z,101631.45
2018-08-30T23:05:26.686Z,101632.64
2018-08-30T23:10:28.869Z,101633.95
2018-08-30T23:15:31.017Z,101636.17
2018-08-30T23:20:33.191Z,101630.17
2018-08-30T23:25:35.316Z,101623.29
2018-08-30T23:30:37.531Z,101628.62
2018-08-30T23:35:39.644Z,101625.44
2018-08-30T23:40:41.820Z,101605.39
2018-08-30T23:45:43.998Z,101629.63
2018-08-30T23:50:46.141Z,101627.95
2018-08-30T23:55:48.305Z,101625.77
